createdAt,value
2019-03-16T00:02:44.835Z,6.10
2019-03-16T00:07:33.240Z,6.00
2019-03-16T00:12:15.559Z,5.90
2019-03-16T00:17:00.108Z,5.90
2019-03-16T00:21:44.667Z,5.90
2019-03-16T00:26:29.388Z,5.90
2019-03-16T00:31:13.901Z,5.80
2019-03-16T00:35:58.424Z,5.80
2019-03-16T00:40:43.117Z,5.80
2019-03-16T00:45:27.777Z,5.80
2019-03-16T00:50:12.385Z,5.80
2019-03-16T00:54:56.934Z,5.80
2019-03-16T00:59:41.481Z,5.80
2019-03-16T01:04:25.920Z,5.90
2019-03-16T01:09:10.483Z,5.80
2019-03-16T01:13:55.200Z,5.80
2019-03-16T01:18:40.075Z,5.90
2019-03-16T01:23:24.553Z,5.80
2019-03-16T01:28:09.185Z,5.80
2019-03-16T01:32:53.718Z,5.70
2019-03-16T01:37:38.306Z,5.70
2019-03-16T01:42:22.845Z,5.70
2019-03-16T01:47:07.316Z,5.60
2019-03-16T01:51:52.050Z,5.60
2019-03-16T01:56:36.741Z,5.60
2019-03-16T02:01:21.233Z,5.60
2019-03-16T02:06:05.695Z,5.60
2019-03-16T02:10:50.349Z,5.60
2019-03-16T02:15:35.060Z,5.60
2019-03-16T02:20:19.647Z,5.60
2019-03-16T02:25:04.180Z,5.40
2019-03-16T02:29:48.823Z,5.60
2019-03-16T02:34:33.642Z,5.60
2019-03-16T02:39:18.251Z,5.60
2019-03-16T02:44:02.838Z,5.70
2019-03-16T02:48:47.384Z,5.70
2019-03-16T02:53:31.949Z,5.70
2019-03-16T02:58:16.493Z,5.80
2019-03-16T03:03:00.999Z,5.70
2019-03-16T03:07:45.567Z,5.70
2019-03-16T03:12:30.163Z,5.70
2019-03-16T03:17:14.800Z,5.60
2019-03-16T03:21:59.376Z,5.60
2019-03-16T03:26:44.181Z,5.60
2019-03-16T03:31:28.781Z,5.60
2019-03-16T03:36:13.405Z,5.60
2019-03-16T03:41:01.369Z,5.60
2019-03-16T03:45:44.228Z,5.60
2019-03-16T03:50:28.737Z,5.70
2019-03-16T03:55:13.301Z,5.70
2019-03-16T03:59:57.813Z,5.70
2019-03-16T04:04:42.350Z,5.70
2019-03-16T04:09:27.069Z,5.70
2019-03-16T04:14:11.673Z,5.60
2019-03-16T04:18:56.231Z,5.60
2019-03-16T04:23:40.818Z,5.70
2019-03-16T04:28:25.571Z,5.60
2019-03-16T04:33:10.096Z,5.60
2019-03-16T04:37:54.795Z,5.70
2019-03-16T04:42:39.499Z,5.60
2019-03-16T04:47:23.988Z,5.60
2019-03-16T04:52:08.615Z,5.60
2019-03-16T04:56:53.317Z,5.70
2019-03-16T05:01:37.996Z,5.70
2019-03-16T05:06:22.857Z,5.60
2019-03-16T05:11:07.347Z,5.60
2019-03-16T05:15:51.916Z,5.50
2019-03-16T05:20:36.413Z,5.50
2019-03-16T05:25:21.033Z,5.50
2019-03-16T05:30:06.108Z,5.60
2019-03-16T05:34:56.530Z,5.60
2019-03-16T05:39:37.225Z,5.50
2019-03-16T05:44:21.957Z,5.70
2019-03-16T05:49:06.537Z,5.60
2019-03-16T05:53:51.122Z,5.70
2019-03-16T05:58:35.715Z,5.70
2019-03-16T06:03:20.365Z,5.80
2019-03-16T06:08:05.081Z,5.90
2019-03-16T06:12:49.588Z,5.90
2019-03-16T06:17:34.183Z,5.90
2019-03-16T06:22:18.973Z,6.00
2019-03-16T06:27:03.807Z,6.00
2019-03-16T06:31:48.396Z,6.10
2019-03-16T06:36:33.085Z,6.10
2019-03-16T06:41:17.687Z,6.10
2019-03-16T06:46:02.291Z,6.10
2019-03-16T06:50:47.127Z,6.10
2019-03-16T06:55:31.841Z,6.10
2019-03-16T07:00:16.456Z,6.20
2019-03-16T07:05:01.087Z,6.30
2019-03-16T07:09:45.690Z,6.30
2019-03-16T07:14:30.293Z,6.30
2019-03-16T07:19:14.876Z,6.40
2019-03-16T07:23:59.825Z,6.50
2019-03-16T07:28:44.372Z,6.60
2019-03-16T07:33:29.086Z,6.60
2019-03-16T07:38:13.757Z,6.60
2019-03-16T07:42:59.482Z,6.70
2019-03-16T07:47:44.023Z,7.00
2019-03-16T07:52:28.754Z,7.10
2019-03-16T07:57:13.505Z,7.30
2019-03-16T08:01:58.360Z,7.70
2019-03-16T08:06:43.020Z,7.60
2019-03-16T08:11:27.590Z,7.50
2019-03-16T08:16:12.506Z,7.40
2019-03-16T08:20:57.114Z,7.30
2019-03-16T08:25:41.801Z,7.30
2019-03-16T08:30:26.435Z,7.20
2019-03-16T08:35:11.339Z,7.20
2019-03-16T08:39:56.010Z,7.10
2019-03-16T08:44:40.683Z,6.90
2019-03-16T08:49:25.492Z,7.00
2019-03-16T08:54:10.254Z,7.10
2019-03-16T08:58:54.969Z,7.00
2019-03-16T09:03:43.898Z,6.70
2019-03-16T09:08:26.283Z,6.40
2019-03-16T09:13:11.216Z,6.10
2019-03-16T09:17:56.134Z,6.10
2019-03-16T09:22:40.802Z,5.80
2019-03-16T09:27:31.110Z,5.60
2019-03-16T09:32:12.062Z,5.40
2019-03-16T09:37:06.854Z,5.30
2019-03-16T09:41:51.601Z,5.20
2019-03-16T09:46:36.434Z,5.20
2019-03-16T09:51:21.815Z,5.30
2019-03-16T09:56:07.011Z,5.20
2019-03-16T10:00:52.044Z,5.20
2019-03-16T10:05:37.330Z,5.20
2019-03-16T10:10:22.171Z,5.20
2019-03-16T10:15:07.621Z,5.10
2019-03-16T10:20:00.414Z,5.00
2019-03-16T10:24:49.979Z,5.10
2019-03-16T10:29:34.970Z,5.00
2019-03-16T10:34:19.931Z,5.10
2019-03-16T10:39:07.769Z,5.40
2019-03-16T10:44:04.805Z,5.40
2019-03-16T10:48:55.206Z,5.30
2019-03-16T10:53:52.408Z,5.30
2019-03-16T10:58:56.202Z,5.50
2019-03-16T11:03:40.212Z,5.50
2019-03-16T11:08:54.552Z,5.60
2019-03-16T11:19:05.426Z,5.80
2019-03-16T11:24:05.010Z,6.10
2019-03-16T11:29:18.185Z,6.20
2019-03-16T11:34:34.531Z,6.30
2019-03-16T11:39:27.972Z,6.30
2019-03-16T11:44:13.121Z,6.30
2019-03-16T11:53:55.944Z,6.20
2019-03-16T12:09:08.659Z,7.30
2019-03-16T12:15:07.278Z,7.30
2019-03-16T12:19:52.158Z,7.30
2019-03-16T12:24:37.043Z,7.90
2019-03-16T12:29:50.204Z,8.50
2019-03-16T12:34:34.948Z,7.90
2019-03-16T12:39:19.804Z,8.10
2019-03-16T12:44:04.623Z,8.00
2019-03-16T12:48:49.332Z,7.80
2019-03-16T12:53:35.307Z,7.70
2019-03-16T12:58:20.353Z,7.40
2019-03-16T13:03:05.241Z,7.30
2019-03-16T13:07:50.197Z,7.00
2019-03-16T13:12:35.212Z,7.00
2019-03-16T13:17:20.422Z,7.20
2019-03-16T13:28:12.627Z,7.20
2019-03-16T13:32:57.427Z,7.50
2019-03-16T13:37:51.228Z,7.80
2019-03-16T13:43:33.497Z,8.20
2019-03-16T13:48:18.395Z,8.40
2019-03-16T13:53:03.235Z,8.80
2019-03-16T13:57:48.194Z,9.00
2019-03-16T14:02:33.601Z,9.20
2019-03-16T14:07:18.480Z,9.20
2019-03-16T14:12:05.501Z,9.20
2019-03-16T14:16:53.356Z,9.30
2019-03-16T14:21:38.037Z,9.20
2019-03-16T14:26:23.611Z,8.70
2019-03-16T14:31:08.596Z,9.20
2019-03-16T14:35:53.635Z,9.10
2019-03-16T14:45:49.791Z,9.30
2019-03-16T14:50:34.747Z,9.50
2019-03-16T14:55:19.742Z,9.60
2019-03-16T15:00:04.719Z,9.70
2019-03-16T15:04:49.437Z,9.80
2019-03-16T15:09:34.426Z,9.90
2019-03-16T15:14:21.921Z,10.00
2019-03-16T15:19:05.970Z,10.00
2019-03-16T15:23:50.780Z,10.10
2019-03-16T15:28:35.666Z,10.00
2019-03-16T15:33:20.534Z,9.90
2019-03-16T15:38:05.399Z,9.90
2019-03-16T15:42:50.208Z,9.80
2019-03-16T15:47:46.921Z,9.80
2019-03-16T15:52:31.781Z,9.80
2019-03-16T15:57:16.784Z,9.80
2019-03-16T16:02:01.987Z,9.80
2019-03-16T16:06:46.992Z,9.80
2019-03-16T16:11:32.478Z,9.90
2019-03-16T16:16:17.589Z,9.90
2019-03-16T16:21:05.489Z,9.90
2019-03-16T16:25:50.244Z,9.90
2019-03-16T16:30:39.955Z,9.80
2019-03-16T16:35:25.608Z,9.80
2019-03-16T16:40:13.759Z,9.70
2019-03-16T16:45:00.058Z,9.70
2019-03-16T16:49:45.400Z,9.70
2019-03-16T16:54:30.374Z,9.70
2019-03-16T16:59:15.032Z,9.70
2019-03-16T17:04:00.227Z,9.70
2019-03-16T17:08:44.963Z,9.70
2019-03-16T17:13:29.992Z,9.70
2019-03-16T17:18:14.918Z,9.60
2019-03-16T17:23:00.062Z,9.60
2019-03-16T17:27:50.154Z,9.60
2019-03-16T17:32:44.814Z,9.70
2019-03-16T17:37:30.187Z,9.60
2019-03-16T17:42:15.310Z,9.60
2019-03-16T17:47:03.029Z,9.50
2019-03-16T17:51:51.272Z,9.50
2019-03-16T17:56:36.165Z,9.50
2019-03-16T18:01:21.635Z,9.40
2019-03-16T18:06:06.648Z,9.40
2019-03-16T18:10:51.554Z,9.40
2019-03-16T18:15:36.677Z,9.40
2019-03-16T18:20:33.727Z,9.40
2019-03-16T18:25:20.209Z,9.50
2019-03-16T18:30:10.310Z,9.40
2019-03-16T18:34:54.974Z,9.50
2019-03-16T18:39:43.035Z,9.40
2019-03-16T18:44:31.310Z,9.40
2019-03-16T18:49:16.404Z,9.50
2019-03-16T18:54:01.261Z,9.50
2019-03-16T18:58:49.669Z,9.50
2019-03-16T19:03:36.282Z,9.40
2019-03-16T19:08:21.295Z,9.40
2019-03-16T19:13:05.949Z,9.40
2019-03-16T19:17:59.159Z,9.40
2019-03-16T19:22:44.168Z,9.40
2019-03-16T19:27:29.813Z,9.40
2019-03-16T19:32:33.177Z,9.40
2019-03-16T19:37:13.173Z,9.40
2019-03-16T19:41:59.327Z,9.40
2019-03-16T19:46:49.533Z,9.40
2019-03-16T19:51:34.278Z,9.40
2019-03-16T19:56:19.370Z,9.40
2019-03-16T20:01:08.504Z,9.30
2019-03-16T20:05:53.617Z,9.30
2019-03-16T20:10:38.898Z,9.30
2019-03-16T20:15:23.971Z,9.30
2019-03-16T20:20:10.067Z,9.30
2019-03-16T20:24:55.190Z,9.30
2019-03-16T20:29:40.304Z,9.20
2019-03-16T20:34:25.743Z,9.20
2019-03-16T20:39:10.657Z,9.20
2019-03-16T20:43:55.824Z,9.10
2019-03-16T20:48:40.894Z,9.00
2019-03-16T20:53:25.787Z,9.00
2019-03-16T20:58:10.681Z,9.00
2019-03-16T21:02:55.740Z,9.10
2019-03-16T21:07:40.674Z,9.10
2019-03-16T21:12:25.695Z,9.00
2019-03-16T21:17:13.103Z,9.10
2019-03-16T21:21:58.289Z,9.20
2019-03-16T21:26:52.667Z,9.10
2019-03-16T21:31:29.989Z,9.10
2019-03-16T21:36:14.953Z,9.00
2019-03-16T21:40:59.888Z,9.00
2019-03-16T21:45:44.964Z,9.10
2019-03-16T21:50:29.909Z,9.00
2019-03-16T21:55:14.765Z,9.00
2019-03-16T21:59:59.739Z,9.00
2019-03-16T22:04:44.776Z,9.00
2019-03-16T22:09:35.768Z,8.90
2019-03-16T22:14:21.377Z,8.90
2019-03-16T22:19:09.651Z,8.90
2019-03-16T22:23:54.730Z,8.80
2019-03-16T22:28:39.741Z,8.80
2019-03-16T22:33:24.796Z,8.80
2019-03-16T22:38:10.057Z,8.80
2019-03-16T22:42:57.002Z,8.80
2019-03-16T22:47:42.359Z,8.70
2019-03-16T22:52:29.684Z,8.70
2019-03-16T22:57:14.500Z,8.80
2019-03-16T23:01:59.421Z,8.70
2019-03-16T23:06:44.834Z,8.70
2019-03-16T23:11:29.725Z,8.70
2019-03-16T23:16:14.589Z,8.70
2019-03-16T23:20:59.557Z,8.60
2019-03-16T23:25:44.320Z,8.60
2019-03-16T23:30:29.309Z,8.40
2019-03-16T23:35:16.529Z,8.30
2019-03-16T23:40:01.473Z,8.00
2019-03-16T23:44:46.377Z,7.70
2019-03-16T23:49:31.295Z,7.60
2019-03-16T23:54:17.702Z,7.60
2019-03-16T23:59:02.681Z,7.50
